»·PEaware :: N475RS KDEN-KABQ

N475RS :: KDEN-KABQ

FLIGHT INFORMATION

Flight Status: Arrived
Operator: Privately registered:
United States
More flights under this callsign
Pilot: Aker J. (16898)
Aircraft: BOEING 757-300
(B753)
More flights by this aircraft type
Origin: KDEN Denver Intl
United States
Destination: KABQ Albuquerque Intl Sunport
United States
More flights between these airports :: More routes between these airports
Route: +SPAZZ3 ZAPAA DATME SNDIA3
File this flight plan on PilotEdge
Remarks: N475RS
Altitude:
(Current/Filed)
36000*
Speed:
(Current/Filed)
300kts
Departed: 19-Jan-18 11:58 AM
Arrived: 19-Jan-18 01:08 PM
Distance/Time
Traveled:
303nm/1:10
Distance/Time
To Go:
Arrived

Flight Plot

Page will automatically refresh every two minutes.


Map Options




Map Legend


Flown Route
Filed Route
Departure Airport
Arrival Airport
Navaid (VOR, NDB)
Fix

Horizontal Profiles

Position Reports

Time Latitude Longitude Heading Altitude Ground
Speed
19-Jan-18 11:41 39.865507 -104.676646 0 5445ft 0kts
19-Jan-18 11:42 39.865507 -104.676646 0 5445ft 0kts
19-Jan-18 11:43 39.865507 -104.676646 360 5445ft 0kts
19-Jan-18 11:44 39.865507 -104.676646 360 5445ft 0kts
19-Jan-18 11:45 39.865507 -104.676646 360 5445ft 0kts
19-Jan-18 11:46 39.865507 -104.676646 360 5445ft 0kts
19-Jan-18 11:47 39.865507 -104.676646 360 5445ft 0kts
19-Jan-18 11:48 39.865507 -104.676646 360 5445ft 0kts
19-Jan-18 11:49 39.865507 -104.676646 360 5445ft 0kts
19-Jan-18 11:50 39.865507 -104.676646 360 5445ft 0kts
19-Jan-18 11:51 39.865507 -104.676646 360 5445ft 0kts
19-Jan-18 11:52 39.865507 -104.676646 360 5445ft 0kts
19-Jan-18 11:53 39.865507 -104.676646 360 5445ft 0kts
19-Jan-18 11:54 39.865507 -104.676646 360 5445ft 0kts
19-Jan-18 11:55 39.865886 -104.676401 61 5446ft 7kts
19-Jan-18 11:56 39.864764 -104.677296 270 5446ft 7kts
19-Jan-18 11:57 39.864767 -104.677635 270 5446ft 7kts
19-Jan-18 11:58 39.864580 -104.681223 243 5446ft 14kts
19-Jan-18 11:59 39.860694 -104.683818 179 5446ft 21kts
19-Jan-18 12:00 39.854829 -104.683879 182 5446ft 29kts
19-Jan-18 12:01 39.845353 -104.684001 180 5446ft 37kts
19-Jan-18 12:02 39.841985 -104.684020 180 5446ft 1kts
19-Jan-18 12:03 39.840687 -104.685535 268 5445ft 19kts
19-Jan-18 12:04 39.840422 -104.707791 261 5446ft 56kts
19-Jan-18 12:05 39.842106 -104.715757 15 5445ft 3kts
19-Jan-18 12:06 39.842464 -104.707265 89 5446ft 54kts
19-Jan-18 12:07 39.842379 -104.688875 91 5446ft 42kts
19-Jan-18 12:08 39.842075 -104.684173 161 5446ft 3kts
19-Jan-18 12:09 39.840699 -104.685479 265 5445ft 28kts
19-Jan-18 12:10 39.841272 -104.726619 269 6165ft 155kts
19-Jan-18 12:11 39.832424 -104.774007 256 7979ft 149kts
19-Jan-18 12:12 39.822682 -104.838937 238 9610ft 212kts
19-Jan-18 12:13 39.786891 -104.904049 223 11528ft 269kts
19-Jan-18 12:14 39.715081 -104.925876 178 14542ft 297kts
19-Jan-18 12:15 39.653478 -104.911367 175 16907ft 305kts
19-Jan-18 12:16 39.577224 -104.870962 157 20080ft 304kts
19-Jan-18 12:17 39.503906 -104.818921 158 22308ft 314kts
19-Jan-18 12:18 39.423080 -104.776124 165 24223ft 326kts
19-Jan-18 12:19 39.336897 -104.752282 182 26156ft 323kts
19-Jan-18 12:20 39.247933 -104.746590 185 28045ft 325kts
19-Jan-18 12:21 39.158249 -104.740449 184 29934ft 321kts
19-Jan-18 12:22 39.071907 -104.735201 185 31787ft 306kts
19-Jan-18 12:23 39.000172 -104.760684 214 33662ft 249kts
19-Jan-18 12:24 38.935653 -104.800533 212 33888ft 273kts
19-Jan-18 12:25 38.867302 -104.841583 211 34224ft 294kts
19-Jan-18 12:26 38.791387 -104.886875 210 34765ft 311kts
19-Jan-18 12:27 38.711002 -104.934547 209 35302ft 329kts
19-Jan-18 12:28 38.626946 -104.983188 209 35830ft 346kts
19-Jan-18 12:29 38.536619 -105.037522 210 35897ft 377kts
19-Jan-18 12:30 38.454724 -105.086419 209 35895ft 405kts
19-Jan-18 12:31 38.334310 -105.156235 208 35888ft 409kts
19-Jan-18 12:32 38.229530 -105.212791 208 35890ft 409kts
19-Jan-18 12:33 38.143071 -105.261709 209 35951ft 408kts
19-Jan-18 12:34 38.041899 -105.325100 210 36077ft 407kts
19-Jan-18 12:35 37.922450 -105.396037 209 36122ft 408kts
19-Jan-18 12:36 37.840899 -105.443420 209 36124ft 408kts
19-Jan-18 12:37 37.737878 -105.502990 209 36125ft 411kts
19-Jan-18 12:38 37.630929 -105.563318 209 36123ft 425kts
19-Jan-18 12:39 37.523469 -105.624817 209 36122ft 425kts
19-Jan-18 12:40 37.419585 -105.684266 208 36130ft 426kts
19-Jan-18 12:41 37.310488 -105.748763 209 36129ft 437kts
19-Jan-18 12:42 37.202541 -105.808733 208 36025ft 402kts
19-Jan-18 12:43 37.100709 -105.865796 208 34570ft 405kts
19-Jan-18 12:44 36.996474 -105.924718 207 33081ft 418kts
19-Jan-18 12:45 36.894728 -105.982056 207 31659ft 424kts
19-Jan-18 12:46 36.787869 -106.043373 207 30175ft 429kts
19-Jan-18 12:47 36.679546 -106.105450 207 28682ft 432kts
19-Jan-18 12:48 36.566062 -106.158328 203 27178ft 438kts
19-Jan-18 12:49 36.488418 -106.191234 202 26159ft 435kts
19-Jan-18 12:50 36.400024 -106.229787 202 24976ft 428kts
19-Jan-18 12:51 36.289868 -106.278900 203 23472ft 419kts
19-Jan-18 12:52 36.181199 -106.327334 203 22319ft 413kts
19-Jan-18 12:53 36.073882 -106.374214 202 21207ft 407kts
19-Jan-18 12:54 35.970689 -106.419978 203 20141ft 367kts
19-Jan-18 12:55 35.878495 -106.459237 202 19863ft 363kts
19-Jan-18 12:56 35.785662 -106.497097 202 18332ft 341kts
19-Jan-18 12:57 35.699097 -106.532362 202 16821ft 325kts
19-Jan-18 12:58 35.615411 -106.566398 202 15309ft 316kts
19-Jan-18 12:59 35.535847 -106.606299 208 13992ft 305kts
19-Jan-18 13:00 35.457846 -106.648413 208 13951ft 309kts
19-Jan-18 13:01 35.383232 -106.685082 206 12299ft 278kts
19-Jan-18 13:02 35.316765 -106.719826 207 10489ft 251kts
19-Jan-18 13:03 35.254126 -106.756063 210 9736ft 250kts
19-Jan-18 13:04 35.192902 -106.793647 210 9058ft 246kts
19-Jan-18 13:05 35.127133 -106.811829 198 9060ft 241kts
19-Jan-18 13:06 35.063609 -106.833100 198 9056ft 237kts
19-Jan-18 13:07 34.999957 -106.854453 198 8405ft 237kts
19-Jan-18 13:08 34.939196 -106.863802 145 8055ft 219kts
19-Jan-18 13:09 34.930465 -106.797469 68 7246ft 207kts
19-Jan-18 13:10 34.948130 -106.731768 68 7250ft 204kts
19-Jan-18 13:11 34.980302 -106.680515 40 6457ft 180kts
19-Jan-18 13:12 35.011460 -106.643534 42 5645ft 149kts
19-Jan-18 13:13 35.035642 -106.614461 45 5320ft 82kts
19-Jan-18 13:14 35.039860 -106.610900 6 5321ft 6kts
19-Jan-18 13:15 35.046931 -106.616385 11 5310ft 0kts
19-Jan-18 13:16 35.046931 -106.616385 11 5310ft 0kts
19-Jan-18 13:17 35.046931 -106.616385 11 5310ft 0kts
19-Jan-18 13:18 35.046931 -106.616385 11 5310ft 0kts
19-Jan-18 13:19 35.046931 -106.616385 11 5310ft 0kts
19-Jan-18 13:20 35.046931 -106.616385 11 5310ft 0kts

Navigation Log

Ident Type
Flight plan parsing failed, navigation log unavailable